createdAt,value
2023-09-06T00:02:17.125Z,16.40
2023-09-06T00:04:45.896Z,16.19
2023-09-06T00:07:14.947Z,16.10
2023-09-06T00:09:43.666Z,15.99
2023-09-06T00:12:12.418Z,15.96
2023-09-06T00:14:42.776Z,16.02
2023-09-06T00:17:11.477Z,16.00
2023-09-06T00:19:40.227Z,15.96
2023-09-06T00:22:10.518Z,15.89
2023-09-06T00:24:39.189Z,15.85
2023-09-06T00:27:08.940Z,16.00
2023-09-06T00:29:37.647Z,15.98
2023-09-06T00:32:06.461Z,15.94
2023-09-06T00:34:35.084Z,15.83
2023-09-06T00:37:04.613Z,15.77
2023-09-06T00:39:51.592Z,15.70
2023-09-06T00:42:51.699Z,15.66
2023-09-06T00:45:23.224Z,15.79
2023-09-06T00:47:53.925Z,15.83
2023-09-06T00:50:23.354Z,15.97
2023-09-06T00:52:55.577Z,15.95
2023-09-06T00:55:26.102Z,15.98
2023-09-06T00:57:56.136Z,16.06
2023-09-06T01:00:26.029Z,16.14
2023-09-06T01:02:54.954Z,16.11
2023-09-06T01:05:25.302Z,16.14
2023-09-06T01:07:57.072Z,16.17
2023-09-06T01:10:25.884Z,16.21
2023-09-06T01:12:56.530Z,16.35
2023-09-06T01:15:26.175Z,16.44
2023-09-06T01:17:56.201Z,16.48
2023-09-06T01:20:37.906Z,16.52
2023-09-06T01:23:31.797Z,16.54
2023-09-06T01:26:02.506Z,16.61
2023-09-06T01:28:31.677Z,16.64
2023-09-06T01:31:01.588Z,16.54
2023-09-06T01:33:32.219Z,16.62
2023-09-06T01:36:01.167Z,16.68
2023-09-06T01:38:34.247Z,16.65
2023-09-06T01:41:05.406Z,16.58
2023-09-06T01:43:34.141Z,16.63
2023-09-06T01:46:04.544Z,16.57
2023-09-06T01:48:34.168Z,16.46
2023-09-06T01:51:04.672Z,16.45
2023-09-06T01:53:36.010Z,16.49
2023-09-06T01:56:07.952Z,16.50
2023-09-06T01:58:40.296Z,16.55
2023-09-06T02:01:11.347Z,16.55
2023-09-06T02:03:40.343Z,16.54
2023-09-06T02:06:12.482Z,16.48
2023-09-06T02:08:54.944Z,16.49
2023-09-06T02:14:30.806Z,16.55
2023-09-06T02:20:04.031Z,16.51
2023-09-06T02:22:32.791Z,16.39
2023-09-06T02:25:02.373Z,16.28
2023-09-06T02:27:33.165Z,16.25
2023-09-06T02:30:02.641Z,16.19
2023-09-06T02:32:38.352Z,16.22
2023-09-06T02:35:08.463Z,16.19
2023-09-06T02:37:37.786Z,16.12
2023-09-06T02:40:21.156Z,16.18
2023-09-06T02:42:52.634Z,16.02
2023-09-06T02:45:23.165Z,16.19
2023-09-06T02:47:54.407Z,16.12
2023-09-06T02:50:26.892Z,16.16
2023-09-06T02:52:57.170Z,16.03
2023-09-06T02:55:25.876Z,15.90
2023-09-06T02:57:56.514Z,15.86
2023-09-06T03:03:44.304Z,15.77
2023-09-06T03:06:14.881Z,15.30
2023-09-06T03:08:43.663Z,15.69
2023-09-06T03:11:18.100Z,15.71
2023-09-06T03:13:46.618Z,15.79
2023-09-06T03:16:17.146Z,15.81
2023-09-06T03:18:47.261Z,15.89
2023-09-06T03:21:17.443Z,15.95
2023-09-06T03:23:50.202Z,15.90
2023-09-06T03:26:18.869Z,15.80
2023-09-06T03:28:57.937Z,15.73
2023-09-06T03:31:28.263Z,15.72
2023-09-06T03:33:57.369Z,15.71
2023-09-06T03:36:33.973Z,15.76
2023-09-06T03:39:04.674Z,15.93
2023-09-06T03:41:33.636Z,15.81
2023-09-06T03:44:02.290Z,15.79
2023-09-06T03:46:31.133Z,15.73
2023-09-06T03:49:00.012Z,15.68
2023-09-06T03:51:28.740Z,15.56
2023-09-06T03:53:58.486Z,15.47
2023-09-06T03:56:39.586Z,15.41
2023-09-06T03:59:16.060Z,15.50
2023-09-06T04:01:44.093Z,15.52
2023-09-06T04:04:14.360Z,15.70
2023-09-06T04:06:45.856Z,15.64
2023-09-06T04:09:14.817Z,15.73
2023-09-06T04:11:43.659Z,15.76
2023-09-06T04:14:12.364Z,15.85
2023-09-06T04:16:41.143Z,15.96
2023-09-06T04:19:10.480Z,16.16
2023-09-06T04:21:47.618Z,16.36
2023-09-06T04:24:16.528Z,16.49
2023-09-06T04:26:55.430Z,16.43
2023-09-06T04:29:28.468Z,16.44
2023-09-06T04:31:58.858Z,16.53
2023-09-06T04:34:32.263Z,16.60
2023-09-06T04:37:02.509Z,16.68
2023-09-06T04:39:38.017Z,16.90
2023-09-06T04:42:08.814Z,16.99
2023-09-06T04:44:38.845Z,17.06
2023-09-06T04:47:10.689Z,17.25
2023-09-06T04:49:42.579Z,17.44
2023-09-06T04:52:16.424Z,17.38
2023-09-06T04:54:45.228Z,17.63
2023-09-06T04:57:16.636Z,17.70
2023-09-06T04:59:48.538Z,17.78
2023-09-06T05:02:30.308Z,17.81
2023-09-06T05:05:01.566Z,17.78
2023-09-06T05:07:33.746Z,17.82
2023-09-06T05:10:07.089Z,17.91
2023-09-06T05:12:37.288Z,18.03
2023-09-06T05:15:10.029Z,18.14
2023-09-06T05:17:38.849Z,18.23
2023-09-06T05:20:33.881Z,18.29
2023-09-06T05:23:05.394Z,18.41
2023-09-06T05:25:35.315Z,18.60
2023-09-06T05:28:05.991Z,18.75
2023-09-06T05:30:34.818Z,18.94
2023-09-06T05:33:03.616Z,19.08
2023-09-06T05:35:32.377Z,19.16
2023-09-06T05:38:03.033Z,19.28
2023-09-06T05:40:37.076Z,19.31
2023-09-06T05:43:34.419Z,19.40
2023-09-06T05:46:03.635Z,19.31
2023-09-06T05:48:35.163Z,19.63
2023-09-06T05:51:04.092Z,19.79
2023-09-06T05:53:32.823Z,19.89
2023-09-06T05:56:07.992Z,19.65
2023-09-06T05:58:39.335Z,19.86
2023-09-06T06:01:09.541Z,19.84
2023-09-06T06:03:39.392Z,19.87
2023-09-06T06:06:10.002Z,19.95
2023-09-06T06:08:39.280Z,20.01
2023-09-06T06:11:11.182Z,20.32
2023-09-06T06:13:39.972Z,20.01
2023-09-06T06:16:10.106Z,20.22
2023-09-06T06:18:38.836Z,20.41
2023-09-06T06:21:07.675Z,20.64
2023-09-06T06:23:41.666Z,20.39
2023-09-06T06:26:09.912Z,20.23
2023-09-06T06:28:40.233Z,20.48
2023-09-06T06:31:17.220Z,20.49
2023-09-06T06:37:16.982Z,20.70
2023-09-06T06:39:47.600Z,20.78
2023-09-06T06:42:19.716Z,20.47
2023-09-06T06:44:53.134Z,20.59
2023-09-06T06:57:20.474Z,20.93
2023-09-06T07:09:42.524Z,21.01
2023-09-06T07:12:12.055Z,21.12
2023-09-06T07:14:54.293Z,21.27
2023-09-06T07:17:23.317Z,21.36
2023-09-06T07:19:58.271Z,21.13
2023-09-06T07:22:30.651Z,21.20
2023-09-06T07:24:59.416Z,21.33
2023-09-06T07:27:30.166Z,21.21
2023-09-06T07:30:00.067Z,21.54
2023-09-06T07:39:04.425Z,21.91
2023-09-06T07:41:33.416Z,21.64
2023-09-06T07:44:02.154Z,21.98
2023-09-06T07:46:32.251Z,22.44
2023-09-06T07:49:01.014Z,22.20
2023-09-06T07:51:33.049Z,22.01
2023-09-06T07:54:01.738Z,21.87
2023-09-06T07:56:30.458Z,21.86
2023-09-06T07:58:59.316Z,21.85
2023-09-06T08:02:07.811Z,22.11
2023-09-06T08:04:37.123Z,22.24
2023-09-06T08:07:27.194Z,22.19
2023-09-06T08:10:04.755Z,22.04
2023-09-06T08:12:33.571Z,22.31
2023-09-06T08:15:02.243Z,22.13
2023-09-06T08:17:35.799Z,22.15
2023-09-06T08:20:12.592Z,22.29
2023-09-06T08:22:51.720Z,22.43
2023-09-06T08:25:20.888Z,22.73
2023-09-06T08:28:30.832Z,22.80
2023-09-06T08:37:31.872Z,23.21
2023-09-06T08:40:00.648Z,23.12
2023-09-06T08:42:33.999Z,23.13
2023-09-06T08:45:25.562Z,23.35
2023-09-06T08:47:58.999Z,23.50
2023-09-06T08:50:30.397Z,23.38
2023-09-06T08:53:01.257Z,23.55
2023-09-06T08:55:30.511Z,23.61
2023-09-06T08:58:04.470Z,23.98
2023-09-06T09:00:38.038Z,24.32
2023-09-06T09:03:13.239Z,24.51
2023-09-06T09:05:46.246Z,24.93
2023-09-06T09:08:22.766Z,24.98
2023-09-06T09:10:56.937Z,24.88
2023-09-06T09:13:34.197Z,24.71
2023-09-06T09:16:26.276Z,24.65
2023-09-06T09:18:55.619Z,24.63
2023-09-06T09:21:24.587Z,24.48
2023-09-06T09:23:57.071Z,24.63
2023-09-06T09:26:41.404Z,24.76
2023-09-06T09:32:46.095Z,24.96
2023-09-06T09:35:51.322Z,25.04
2023-09-06T09:38:21.866Z,25.40
2023-09-06T09:41:07.952Z,25.44
2023-09-06T09:43:37.092Z,25.59
2023-09-06T09:49:21.853Z,25.95
2023-09-06T09:54:59.411Z,26.44
2023-09-06T10:01:02.247Z,26.91
2023-09-06T10:03:38.456Z,27.02
2023-09-06T10:06:07.885Z,26.98
2023-09-06T10:09:11.375Z,27.15
2023-09-06T10:11:43.030Z,27.39
2023-09-06T10:14:14.260Z,27.50
2023-09-06T10:19:53.733Z,27.34
2023-09-06T10:22:18.570Z,27.27
2023-09-06T10:24:50.459Z,26.53
2023-09-06T10:27:21.299Z,26.40
2023-09-06T10:30:04.685Z,26.87
2023-09-06T10:32:34.417Z,26.59
2023-09-06T10:35:28.554Z,26.43
2023-09-06T10:38:17.854Z,26.22
2023-09-06T10:40:59.646Z,26.39
2023-09-06T10:43:36.115Z,26.42
2023-09-06T10:46:18.233Z,26.27
2023-09-06T10:49:25.196Z,26.44
2023-09-06T10:51:59.471Z,26.67
2023-09-06T10:54:38.923Z,26.32
2023-09-06T10:57:15.869Z,26.06
2023-09-06T10:59:59.027Z,26.34
2023-09-06T11:02:29.629Z,26.42
2023-09-06T11:05:11.303Z,26.21
2023-09-06T11:07:51.181Z,26.05
2023-09-06T11:16:50.732Z,24.89
2023-09-06T11:19:34.200Z,24.86
2023-09-06T11:22:14.607Z,24.53
2023-09-06T11:24:48.554Z,24.22
2023-09-06T11:27:21.370Z,24.34
2023-09-06T11:30:19.534Z,24.42
2023-09-06T11:32:49.694Z,24.83
2023-09-06T11:35:48.440Z,25.40
2023-09-06T11:38:22.315Z,25.28
2023-09-06T11:40:53.532Z,25.50
2023-09-06T11:43:24.941Z,25.61
2023-09-06T11:46:03.433Z,25.87
2023-09-06T11:48:39.683Z,25.33
2023-09-06T11:51:16.485Z,25.34
2023-09-06T11:57:35.660Z,25.48
2023-09-06T12:00:07.134Z,24.96
2023-09-06T12:02:37.571Z,24.65
2023-09-06T12:05:42.450Z,24.55
2023-09-06T12:08:17.058Z,24.23
2023-09-06T12:11:17.362Z,24.11
2023-09-06T12:14:05.173Z,23.80
2023-09-06T12:17:15.637Z,24.23
2023-09-06T12:20:19.739Z,24.43
2023-09-06T12:22:55.777Z,24.48
2023-09-06T12:25:44.965Z,24.26
2023-09-06T12:28:13.934Z,24.01
2023-09-06T12:34:34.362Z,24.41
2023-09-06T12:37:04.143Z,24.20
2023-09-06T12:39:39.619Z,24.25
2023-09-06T12:42:35.969Z,24.11
2023-09-06T12:47:49.800Z,23.95
2023-09-06T12:50:28.617Z,23.66
2023-09-06T12:52:53.929Z,23.81
2023-09-06T12:55:23.312Z,23.79
2023-09-06T12:57:59.480Z,23.61
2023-09-06T13:00:45.120Z,23.47
2023-09-06T13:03:20.499Z,23.18
2023-09-06T13:06:02.302Z,23.34
2023-09-06T13:08:37.374Z,23.55
2023-09-06T13:11:06.428Z,23.50
2023-09-06T13:13:36.001Z,23.36
2023-09-06T13:19:07.558Z,22.85
2023-09-06T13:21:36.276Z,22.69
2023-09-06T13:24:13.018Z,22.55
2023-09-06T13:26:54.108Z,22.52
2023-09-06T13:29:23.176Z,22.42
2023-09-06T13:31:53.842Z,22.38
2023-09-06T13:34:43.207Z,22.38
2023-09-06T13:37:08.838Z,22.38
2023-09-06T13:39:40.931Z,22.47
2023-09-06T13:42:16.143Z,22.48
2023-09-06T13:44:46.409Z,22.57
2023-09-06T13:47:36.767Z,22.69
2023-09-06T13:50:09.039Z,22.74
2023-09-06T13:52:47.245Z,22.70
2023-09-06T13:58:23.471Z,22.45
2023-09-06T14:00:58.308Z,22.35
2023-09-06T14:03:32.863Z,22.35
2023-09-06T14:06:06.677Z,22.24
2023-09-06T14:08:35.083Z,22.26
2023-09-06T14:11:07.540Z,22.29
2023-09-06T14:13:41.196Z,22.35
2023-09-06T14:16:12.800Z,22.28
2023-09-06T14:19:27.835Z,22.30
2023-09-06T14:22:00.229Z,22.29
2023-09-06T14:24:30.118Z,22.30
2023-09-06T14:26:58.983Z,22.48
2023-09-06T14:29:28.223Z,22.65
2023-09-06T14:31:59.870Z,22.60
2023-09-06T14:34:28.610Z,22.80
2023-09-06T14:36:59.246Z,22.86
2023-09-06T14:39:32.586Z,23.04
2023-09-06T14:42:36.408Z,23.20
2023-09-06T14:44:35.656Z,23.28
2023-09-06T14:47:04.757Z,23.45
2023-09-06T14:49:33.553Z,23.26
2023-09-06T14:52:18.680Z,23.16
2023-09-06T14:54:54.648Z,23.11
2023-09-06T14:57:23.503Z,23.10
2023-09-06T14:59:52.371Z,22.96
2023-09-06T15:02:28.223Z,22.90
2023-09-06T15:04:57.148Z,22.85
2023-09-06T15:07:29.151Z,22.99
2023-09-06T15:10:33.705Z,22.97
2023-09-06T15:13:16.255Z,23.02
2023-09-06T15:15:45.899Z,23.19
2023-09-06T15:18:15.219Z,23.41
2023-09-06T15:20:43.973Z,23.48
2023-09-06T15:23:28.715Z,23.38
2023-09-06T15:25:49.535Z,23.36
2023-09-06T15:28:19.761Z,23.17
2023-09-06T15:30:52.980Z,23.15
2023-09-06T15:33:21.891Z,23.10
2023-09-06T15:35:50.629Z,23.11
2023-09-06T15:38:19.398Z,23.20
2023-09-06T15:41:17.165Z,23.29
2023-09-06T15:47:04.061Z,23.14
2023-09-06T15:52:42.580Z,23.40
2023-09-06T15:55:11.455Z,23.42
2023-09-06T15:57:45.060Z,22.97
2023-09-06T16:01:02.518Z,22.90
2023-09-06T16:03:34.726Z,22.73
2023-09-06T16:06:06.610Z,22.43
2023-09-06T16:08:56.374Z,22.30
2023-09-06T16:11:54.605Z,22.24
2023-09-06T16:14:27.402Z,22.19
2023-09-06T16:16:58.354Z,22.11
2023-09-06T16:19:27.176Z,22.13
2023-09-06T16:21:55.924Z,22.16
2023-09-06T16:24:29.829Z,22.16
2023-09-06T16:26:58.583Z,22.14
2023-09-06T16:29:43.078Z,22.09
2023-09-06T16:32:39.202Z,22.08
2023-09-06T16:35:12.004Z,21.97
2023-09-06T16:38:00.349Z,21.92
2023-09-06T16:40:32.042Z,21.87
2023-09-06T16:44:01.508Z,21.74
2023-09-06T16:53:03.219Z,21.43
2023-09-06T16:58:40.092Z,21.35
2023-09-06T17:01:34.422Z,21.37
2023-09-06T17:04:09.147Z,21.36
2023-09-06T17:09:34.136Z,21.40
2023-09-06T17:12:08.437Z,21.38
2023-09-06T17:14:37.408Z,21.44
2023-09-06T17:17:40.990Z,21.39
2023-09-06T17:23:32.796Z,21.43
2023-09-06T17:26:40.927Z,21.37
2023-09-06T17:29:26.266Z,21.32
2023-09-06T17:32:04.133Z,21.34
2023-09-06T17:34:34.207Z,21.34
2023-09-06T17:37:04.045Z,21.35
2023-09-06T17:39:32.776Z,21.33
2023-09-06T17:42:03.087Z,21.28
2023-09-06T17:44:32.885Z,21.29
2023-09-06T17:47:03.285Z,21.30
2023-09-06T17:49:32.406Z,21.29
2023-09-06T17:52:15.342Z,21.25
2023-09-06T17:57:40.855Z,21.17
2023-09-06T18:00:15.137Z,21.44
2023-09-06T18:02:50.104Z,21.40
2023-09-06T18:05:25.710Z,21.30
2023-09-06T18:07:54.471Z,21.25
2023-09-06T18:10:36.452Z,21.31
2023-09-06T18:13:08.763Z,21.23
2023-09-06T18:15:37.900Z,21.28
2023-09-06T18:18:29.316Z,21.25
2023-09-06T18:21:26.141Z,21.34
2023-09-06T18:24:15.822Z,21.29
2023-09-06T18:26:54.236Z,21.34
2023-09-06T18:30:11.579Z,21.28
2023-09-06T18:33:12.173Z,21.28
2023-09-06T18:36:39.499Z,21.22
2023-09-06T18:39:12.825Z,21.24
2023-09-06T18:41:43.057Z,21.20
2023-09-06T18:44:11.914Z,21.17
2023-09-06T18:46:42.257Z,21.10
2023-09-06T18:49:14.542Z,21.19
2023-09-06T18:51:51.259Z,21.27
2023-09-06T18:54:21.007Z,21.26
2023-09-06T18:56:50.098Z,21.19
2023-09-06T18:59:19.205Z,21.17
2023-09-06T19:01:51.217Z,21.18
2023-09-06T19:04:20.444Z,21.16
2023-09-06T19:06:49.098Z,21.03
2023-09-06T19:09:18.048Z,21.24
2023-09-06T19:11:54.380Z,21.21
2023-09-06T19:14:33.874Z,21.32
2023-09-06T19:17:10.464Z,21.26
2023-09-06T19:19:48.372Z,21.23
2023-09-06T19:23:09.059Z,21.19
2023-09-06T19:26:06.970Z,21.14
2023-09-06T19:28:37.420Z,21.18
2023-09-06T19:31:07.888Z,21.13
2023-09-06T19:33:40.207Z,21.16
2023-09-06T19:36:09.212Z,21.22
2023-09-06T19:38:38.051Z,21.13
2023-09-06T19:41:12.153Z,21.14
2023-09-06T19:43:41.200Z,21.17
2023-09-06T19:46:13.406Z,21.13
2023-09-06T19:49:03.301Z,21.13
2023-09-06T19:51:16.104Z,21.02
2023-09-06T19:53:47.968Z,21.03
2023-09-06T19:56:18.222Z,21.09
2023-09-06T19:59:03.427Z,21.03
2023-09-06T20:01:21.706Z,21.02
2023-09-06T20:03:50.789Z,21.03
2023-09-06T20:06:19.729Z,21.08
2023-09-06T20:08:48.624Z,21.07
2023-09-06T20:11:19.276Z,21.06
2023-09-06T20:13:51.287Z,21.00
2023-09-06T20:16:27.694Z,20.96
2023-09-06T20:19:00.377Z,20.91
2023-09-06T20:21:30.254Z,20.92
2023-09-06T20:23:59.387Z,20.92
2023-09-06T20:26:38.862Z,20.90
2023-09-06T20:43:35.377Z,20.89
2023-09-06T20:46:12.607Z,20.77
2023-09-06T20:48:40.412Z,20.70
2023-09-06T20:51:20.767Z,20.77
2023-09-06T20:53:51.202Z,20.81
2023-09-06T20:56:56.956Z,20.92
2023-09-06T20:59:25.802Z,20.91
2023-09-06T21:02:00.945Z,20.80
2023-09-06T21:04:31.570Z,20.80
2023-09-06T21:07:00.521Z,20.63
2023-09-06T21:09:34.265Z,20.59
2023-09-06T21:18:11.499Z,20.66
2023-09-06T21:20:42.042Z,20.60
2023-09-06T21:23:20.465Z,20.55
2023-09-06T21:25:56.983Z,20.40
2023-09-06T21:28:30.721Z,20.49
2023-09-06T21:31:04.050Z,20.45
2023-09-06T21:33:45.629Z,20.45
2023-09-06T21:36:10.216Z,20.48
2023-09-06T21:38:40.658Z,20.48
2023-09-06T21:41:13.912Z,20.52
2023-09-06T21:43:42.838Z,20.56
2023-09-06T21:46:13.592Z,20.48
2023-09-06T21:52:10.668Z,20.51
2023-09-06T21:57:37.398Z,20.43
2023-09-06T22:00:18.756Z,20.45
2023-09-06T22:02:45.092Z,20.38
2023-09-06T22:05:20.329Z,20.31
2023-09-06T22:07:49.264Z,20.29
2023-09-06T22:10:23.499Z,20.24
2023-09-06T22:12:58.536Z,20.23
2023-09-06T22:15:27.606Z,20.27
2023-09-06T22:18:46.930Z,20.28
2023-09-06T22:21:19.070Z,20.25
2023-09-06T22:23:54.018Z,20.16
2023-09-06T22:26:22.889Z,20.17
2023-09-06T22:28:54.135Z,20.23
2023-09-06T22:31:32.110Z,20.23
2023-09-06T22:34:22.949Z,20.21
2023-09-06T22:36:54.012Z,20.16
2023-09-06T22:39:24.196Z,20.29
2023-09-06T22:41:53.374Z,20.20
2023-09-06T22:50:45.771Z,20.14
2023-09-06T22:53:14.897Z,20.09
2023-09-06T22:55:45.528Z,20.17
2023-09-06T23:01:11.598Z,20.13
2023-09-06T23:03:46.381Z,20.21
2023-09-06T23:06:21.354Z,20.25
2023-09-06T23:08:57.932Z,20.28
2023-09-06T23:11:30.289Z,20.35
2023-09-06T23:14:00.444Z,20.38
2023-09-06T23:16:31.042Z,20.24
2023-09-06T23:18:59.971Z,20.17
2023-09-06T23:21:30.678Z,20.19
2023-09-06T23:24:01.151Z,20.15
2023-09-06T23:26:31.569Z,20.11
2023-09-06T23:29:02.041Z,20.12
2023-09-06T23:31:32.602Z,20.14
2023-09-06T23:34:05.120Z,20.11
2023-09-06T23:36:34.766Z,20.11
2023-09-06T23:39:05.102Z,20.09
2023-09-06T23:41:34.078Z,20.01
2023-09-06T23:44:06.672Z,19.63
2023-09-06T23:46:35.802Z,20.04
2023-09-06T23:49:04.869Z,20.11
2023-09-06T23:51:33.880Z,20.15
2023-09-06T23:54:02.691Z,20.09
2023-09-06T23:56:32.914Z,20.13
2023-09-06T23:59:01.633Z,20.02
